sensor_id;sensor_type;location;lat;lon;timestamp;pressure;altitude;pressure_sealevel;temperature;humidity
72959;BME280;60008;50.826;6.896;2023-04-04T00:01:02;102252.75;;;2.81;100.00
72959;BME280;60008;50.826;6.896;2023-04-04T00:03:47;102258.13;;;2.78;100.00
72959;BME280;60008;50.826;6.896;2023-04-04T00:06:35;102254.31;;;2.67;100.00
72959;BME280;60008;50.826;6.896;2023-04-04T00:09:21;102264.25;;;2.60;100.00
72959;BME280;60008;50.826;6.896;2023-04-04T00:12:06;102254.91;;;2.55;100.00
72959;BME280;60008;50.826;6.896;2023-04-04T00:14:51;102262.06;;;2.51;100.00
72959;BME280;60008;50.826;6.896;2023-04-04T00:17:37;102256.19;;;2.46;100.00
72959;BME280;60008;50.826;6.896;2023-04-04T00:20:22;102255.47;;;2.42;100.00
72959;BME280;60008;50.826;6.896;2023-04-04T00:23:07;102264.03;;;2.46;100.00
72959;BME280;60008;50.826;6.896;2023-04-04T00:25:55;102256.28;;;2.45;100.00
72959;BME280;60008;50.826;6.896;2023-04-04T00:28:40;102261.97;;;2.34;100.00
72959;BME280;60008;50.826;6.896;2023-04-04T00:31:25;102251.97;;;2.25;100.00
72959;BME280;60008;50.826;6.896;2023-04-04T00:34:11;102257.34;;;2.22;100.00
72959;BME280;60008;50.826;6.896;2023-04-04T00:36:56;102260.78;;;2.04;100.00
72959;BME280;60008;50.826;6.896;2023-04-04T00:39:42;102258.09;;;2.05;100.00
72959;BME280;60008;50.826;6.896;2023-04-04T00:42:27;102254.97;;;1.97;100.00
72959;BME280;60008;50.826;6.896;2023-04-04T00:45:12;102256.34;;;1.86;100.00
72959;BME280;60008;50.826;6.896;2023-04-04T00:47:57;102256.63;;;1.79;100.00
72959;BME280;60008;50.826;6.896;2023-04-04T00:50:43;102257.13;;;1.88;100.00
72959;BME280;60008;50.826;6.896;2023-04-04T00:53:28;102254.09;;;1.78;100.00
72959;BME280;60008;50.826;6.896;2023-04-04T00:56:13;102255.78;;;1.79;100.00
72959;BME280;60008;50.826;6.896;2023-04-04T00:58:59;102260.28;;;1.75;100.00
72959;BME280;60008;50.826;6.896;2023-04-04T01:01:44;102257.63;;;1.57;100.00
72959;BME280;60008;50.826;6.896;2023-04-04T01:04:29;102260.44;;;1.52;100.00
72959;BME280;60008;50.826;6.896;2023-04-04T01:07:15;102257.97;;;1.49;100.00
72959;BME280;60008;50.826;6.896;2023-04-04T01:10:00;102257.88;;;1.51;100.00
72959;BME280;60008;50.826;6.896;2023-04-04T01:12:48;102259.53;;;1.53;100.00
72959;BME280;60008;50.826;6.896;2023-04-04T01:15:33;102258.78;;;1.50;100.00
72959;BME280;60008;50.826;6.896;2023-04-04T01:18:20;102262.34;;;1.49;100.00
72959;BME280;60008;50.826;6.896;2023-04-04T01:21:10;102268.34;;;1.51;100.00
72959;BME280;60008;50.826;6.896;2023-04-04T01:24:00;102271.22;;;1.45;100.00
72959;BME280;60008;50.826;6.896;2023-04-04T01:26:45;102270.50;;;1.41;100.00
72959;BME280;60008;50.826;6.896;2023-04-04T01:29:31;102259.59;;;1.32;100.00
72959;BME280;60008;50.826;6.896;2023-04-04T01:32:24;102261.78;;;1.20;100.00
72959;BME280;60008;50.826;6.896;2023-04-04T01:35:35;102261.25;;;1.12;100.00
72959;BME280;60008;50.826;6.896;2023-04-04T01:41:32;102255.91;;;1.15;100.00
72959;BME280;60008;50.826;6.896;2023-04-04T01:44:17;102258.19;;;1.03;100.00
72959;BME280;60008;50.826;6.896;2023-04-04T01:47:05;102248.84;;;0.97;100.00
72959;BME280;60008;50.826;6.896;2023-04-04T01:49:50;102250.59;;;0.97;100.00
72959;BME280;60008;50.826;6.896;2023-04-04T01:52:37;102246.13;;;1.00;100.00
72959;BME280;60008;50.826;6.896;2023-04-04T01:55:22;102251.44;;;0.97;100.00
72959;BME280;60008;50.826;6.896;2023-04-04T01:58:07;102255.88;;;0.95;100.00
72959;BME280;60008;50.826;6.896;2023-04-04T02:00:52;102253.41;;;0.92;100.00
72959;BME280;60008;50.826;6.896;2023-04-04T02:03:37;102248.97;;;0.94;100.00
72959;BME280;60008;50.826;6.896;2023-04-04T02:06:22;102250.91;;;0.89;100.00
72959;BME280;60008;50.826;6.896;2023-04-04T02:09:08;102247.88;;;0.78;100.00
72959;BME280;60008;50.826;6.896;2023-04-04T02:11:53;102250.19;;;0.64;100.00
72959;BME280;60008;50.826;6.896;2023-04-04T02:14:38;102250.50;;;0.56;100.00
72959;BME280;60008;50.826;6.896;2023-04-04T02:17:23;102262.13;;;0.48;100.00
72959;BME280;60008;50.826;6.896;2023-04-04T02:20:09;102254.53;;;0.42;100.00
72959;BME280;60008;50.826;6.896;2023-04-04T02:22:55;102258.03;;;0.41;100.00
72959;BME280;60008;50.826;6.896;2023-04-04T02:25:40;102249.38;;;0.40;100.00
72959;BME280;60008;50.826;6.896;2023-04-04T02:28:27;102253.25;;;0.52;100.00
72959;BME280;60008;50.826;6.896;2023-04-04T02:31:12;102251.13;;;0.40;100.00
72959;BME280;60008;50.826;6.896;2023-04-04T02:33:57;102255.94;;;0.27;100.00
72959;BME280;60008;50.826;6.896;2023-04-04T02:36:42;102253.34;;;0.27;100.00
72959;BME280;60008;50.826;6.896;2023-04-04T02:39:27;102247.13;;;0.31;100.00
72959;BME280;60008;50.826;6.896;2023-04-04T02:42:12;102250.72;;;0.27;100.00
72959;BME280;60008;50.826;6.896;2023-04-04T02:44:57;102236.63;;;0.33;100.00
72959;BME280;60008;50.826;6.896;2023-04-04T02:47:48;102241.22;;;0.26;100.00
72959;BME280;60008;50.826;6.896;2023-04-04T02:50:33;102233.00;;;0.14;100.00
72959;BME280;60008;50.826;6.896;2023-04-04T02:53:18;102228.59;;;0.16;100.00
72959;BME280;60008;50.826;6.896;2023-04-04T02:56:03;102226.09;;;0.13;100.00
72959;BME280;60008;50.826;6.896;2023-04-04T02:58:49;102222.56;;;0.14;100.00
72959;BME280;60008;50.826;6.896;2023-04-04T03:01:34;102210.69;;;0.30;100.00
72959;BME280;60008;50.826;6.896;2023-04-04T03:04:19;102217.69;;;0.28;100.00
72959;BME280;60008;50.826;6.896;2023-04-04T03:07:04;102217.25;;;0.17;100.00
72959;BME280;60008;50.826;6.896;2023-04-04T03:09:49;102219.16;;;0.13;100.00
72959;BME280;60008;50.826;6.896;2023-04-04T03:12:34;102213.09;;;0.13;100.00
72959;BME280;60008;50.826;6.896;2023-04-04T03:15:19;102214.38;;;0.01;100.00
72959;BME280;60008;50.826;6.896;2023-04-04T03:18:05;102218.41;;;0.10;100.00
72959;BME280;60008;50.826;6.896;2023-04-04T03:20:50;102219.47;;;0.04;100.00
72959;BME280;60008;50.826;6.896;2023-04-04T03:23:35;102228.44;;;-0.03;100.00
72959;BME280;60008;50.826;6.896;2023-04-04T03:26:20;102226.84;;;-0.07;100.00
72959;BME280;60008;50.826;6.896;2023-04-04T03:29:05;102228.94;;;-0.17;100.00
72959;BME280;60008;50.826;6.896;2023-04-04T03:31:51;102240.19;;;-0.16;100.00
72959;BME280;60008;50.826;6.896;2023-04-04T03:34:35;102235.91;;;-0.17;100.00
72959;BME280;60008;50.826;6.896;2023-04-04T03:37:21;102236.22;;;-0.26;100.00
72959;BME280;60008;50.826;6.896;2023-04-04T03:40:07;102240.69;;;-0.30;100.00
72959;BME280;60008;50.826;6.896;2023-04-04T03:42:53;102239.88;;;-0.30;100.00
72959;BME280;60008;50.826;6.896;2023-04-04T03:45:38;102236.50;;;-0.34;100.00
72959;BME280;60008;50.826;6.896;2023-04-04T03:48:23;102241.63;;;-0.31;100.00
72959;BME280;60008;50.826;6.896;2023-04-04T03:51:07;102232.06;;;-0.30;100.00
72959;BME280;60008;50.826;6.896;2023-04-04T03:53:53;102235.38;;;-0.27;100.00
72959;BME280;60008;50.826;6.896;2023-04-04T03:56:38;102237.38;;;-0.33;100.00
72959;BME280;60008;50.826;6.896;2023-04-04T03:59:23;102229.94;;;-0.21;100.00
72959;BME280;60008;50.826;6.896;2023-04-04T04:02:09;102237.88;;;-0.24;100.00
72959;BME280;60008;50.826;6.896;2023-04-04T04:04:54;102230.66;;;-0.40;100.00
72959;BME280;60008;50.826;6.896;2023-04-04T04:07:42;102228.69;;;-0.34;100.00
72959;BME280;60008;50.826;6.896;2023-04-04T04:10:27;102224.00;;;-0.24;100.00
72959;BME280;60008;50.826;6.896;2023-04-04T04:13:12;102229.09;;;-0.21;100.00
72959;BME280;60008;50.826;6.896;2023-04-04T04:15:57;102216.06;;;-0.21;100.00
72959;BME280;60008;50.826;6.896;2023-04-04T04:18:42;102223.94;;;-0.23;100.00
72959;BME280;60008;50.826;6.896;2023-04-04T04:21:27;102219.81;;;-0.28;100.00
72959;BME280;60008;50.826;6.896;2023-04-04T04:24:12;102218.91;;;-0.27;100.00
72959;BME280;60008;50.826;6.896;2023-04-04T04:26:57;102211.81;;;-0.24;100.00
72959;BME280;60008;50.826;6.896;2023-04-04T04:29:42;102213.66;;;-0.26;100.00
72959;BME280;60008;50.826;6.896;2023-04-04T04:32:27;102210.69;;;-0.40;100.00
72959;BME280;60008;50.826;6.896;2023-04-04T04:35:12;102211.63;;;-0.42;100.00
72959;BME280;60008;50.826;6.896;2023-04-04T04:37:57;102206.59;;;-0.47;100.00
72959;BME280;60008;50.826;6.896;2023-04-04T04:40:42;102218.81;;;-0.49;100.00
72959;BME280;60008;50.826;6.896;2023-04-04T04:43:27;102211.00;;;-0.49;100.00
72959;BME280;60008;50.826;6.896;2023-04-04T04:46:12;102204.72;;;-0.43;100.00
72959;BME280;60008;50.826;6.896;2023-04-04T04:48:58;102220.50;;;-0.48;100.00
72959;BME280;60008;50.826;6.896;2023-04-04T04:51:43;102212.09;;;-0.54;100.00
72959;BME280;60008;50.826;6.896;2023-04-04T04:54:28;102217.75;;;-0.43;100.00
72959;BME280;60008;50.826;6.896;2023-04-04T04:57:13;102218.50;;;-0.40;100.00
72959;BME280;60008;50.826;6.896;2023-04-04T04:59:58;102217.25;;;-0.30;100.00
72959;BME280;60008;50.826;6.896;2023-04-04T05:02:43;102220.03;;;-0.34;100.00
72959;BME280;60008;50.826;6.896;2023-04-04T05:05:28;102219.75;;;-0.27;100.00
72959;BME280;60008;50.826;6.896;2023-04-04T05:08:13;102218.28;;;-0.34;100.00
72959;BME280;60008;50.826;6.896;2023-04-04T05:10:59;102216.16;;;-0.47;100.00
72959;BME280;60008;50.826;6.896;2023-04-04T05:13:46;102220.69;;;-0.52;100.00
72959;BME280;60008;50.826;6.896;2023-04-04T05:16:31;102220.78;;;-0.55;100.00
72959;BME280;60008;50.826;6.896;2023-04-04T05:19:16;102219.31;;;-0.63;100.00
72959;BME280;60008;50.826;6.896;2023-04-04T05:22:01;102219.06;;;-0.56;100.00
72959;BME280;60008;50.826;6.896;2023-04-04T05:24:46;102217.91;;;-0.48;100.00
72959;BME280;60008;50.826;6.896;2023-04-04T05:27:32;102221.75;;;-0.58;100.00
72959;BME280;60008;50.826;6.896;2023-04-04T05:30:17;102220.81;;;-0.57;100.00
72959;BME280;60008;50.826;6.896;2023-04-04T05:33:02;102222.38;;;-0.51;100.00
72959;BME280;60008;50.826;6.896;2023-04-04T05:35:47;102232.69;;;-0.48;100.00
72959;BME280;60008;50.826;6.896;2023-04-04T05:38:32;102234.69;;;-0.32;100.00
72959;BME280;60008;50.826;6.896;2023-04-04T05:41:17;102233.00;;;-0.33;100.00
72959;BME280;60008;50.826;6.896;2023-04-04T05:44:02;102228.63;;;-0.32;100.00
72959;BME280;60008;50.826;6.896;2023-04-04T05:46:47;102228.69;;;-0.34;100.00
72959;BME280;60008;50.826;6.896;2023-04-04T05:49:32;102232.94;;;-0.31;100.00
72959;BME280;60008;50.826;6.896;2023-04-04T05:52:17;102238.78;;;-0.25;100.00
72959;BME280;60008;50.826;6.896;2023-04-04T05:55:02;102238.41;;;-0.14;100.00
72959;BME280;60008;50.826;6.896;2023-04-04T05:57:49;102240.53;;;-0.02;100.00
72959;BME280;60008;50.826;6.896;2023-04-04T06:00:43;102245.94;;;0.17;100.00
72959;BME280;60008;50.826;6.896;2023-04-04T06:03:27;102242.25;;;0.22;100.00
72959;BME280;60008;50.826;6.896;2023-04-04T06:06:13;102249.06;;;0.26;100.00
72959;BME280;60008;50.826;6.896;2023-04-04T06:08:58;102248.34;;;0.44;100.00
72959;BME280;60008;50.826;6.896;2023-04-04T06:11:43;102249.88;;;0.50;100.00
72959;BME280;60008;50.826;6.896;2023-04-04T06:14:28;102248.09;;;0.50;100.00
72959;BME280;60008;50.826;6.896;2023-04-04T06:17:13;102255.59;;;0.59;100.00
72959;BME280;60008;50.826;6.896;2023-04-04T06:19:59;102254.53;;;0.85;100.00
72959;BME280;60008;50.826;6.896;2023-04-04T06:22:44;102250.31;;;0.83;100.00
72959;BME280;60008;50.826;6.896;2023-04-04T06:25:30;102260.72;;;0.61;100.00
72959;BME280;60008;50.826;6.896;2023-04-04T06:28:15;102255.44;;;0.63;100.00
72959;BME280;60008;50.826;6.896;2023-04-04T06:31:04;102256.41;;;0.82;100.00
72959;BME280;60008;50.826;6.896;2023-04-04T06:33:49;102254.44;;;0.88;100.00
72959;BME280;60008;50.826;6.896;2023-04-04T06:39:59;102247.13;;;0.96;100.00
72959;BME280;60008;50.826;6.896;2023-04-04T06:42:51;102250.22;;;1.06;100.00
72959;BME280;60008;50.826;6.896;2023-04-04T06:45:37;102265.81;;;1.07;100.00
72959;BME280;60008;50.826;6.896;2023-04-04T06:52:09;102268.47;;;1.28;100.00
72959;BME280;60008;50.826;6.896;2023-04-04T06:54:49;102266.22;;;1.39;100.00
72959;BME280;60008;50.826;6.896;2023-04-04T06:57:34;102263.97;;;1.51;100.00
72959;BME280;60008;50.826;6.896;2023-04-04T07:00:20;102266.38;;;1.56;100.00
72959;BME280;60008;50.826;6.896;2023-04-04T07:03:05;102272.38;;;1.78;100.00
72959;BME280;60008;50.826;6.896;2023-04-04T07:05:50;102274.38;;;1.92;100.00
72959;BME280;60008;50.826;6.896;2023-04-04T07:08:36;102265.84;;;2.07;100.00
72959;BME280;60008;50.826;6.896;2023-04-04T07:11:21;102269.63;;;2.20;100.00
72959;BME280;60008;50.826;6.896;2023-04-04T07:14:09;102273.16;;;2.19;100.00
72959;BME280;60008;50.826;6.896;2023-04-04T07:16:54;102283.38;;;2.05;100.00
72959;BME280;60008;50.826;6.896;2023-04-04T07:19:39;102287.28;;;2.15;100.00
72959;BME280;60008;50.826;6.896;2023-04-04T07:22:24;102284.59;;;2.16;100.00
72959;BME280;60008;50.826;6.896;2023-04-04T07:25:09;102275.28;;;1.91;100.00
72959;BME280;60008;50.826;6.896;2023-04-04T07:27:56;102285.56;;;1.95;100.00
72959;BME280;60008;50.826;6.896;2023-04-04T07:30:58;102290.06;;;2.12;100.00
72959;BME280;60008;50.826;6.896;2023-04-04T07:33:44;102291.34;;;2.22;100.00
72959;BME280;60008;50.826;6.896;2023-04-04T07:36:29;102284.97;;;2.46;100.00
72959;BME280;60008;50.826;6.896;2023-04-04T07:39:14;102288.22;;;2.70;100.00
72959;BME280;60008;50.826;6.896;2023-04-04T07:41:59;102285.94;;;2.81;100.00
72959;BME280;60008;50.826;6.896;2023-04-04T07:44:44;102291.38;;;2.95;100.00
72959;BME280;60008;50.826;6.896;2023-04-04T07:47:29;102283.53;;;2.76;100.00
72959;BME280;60008;50.826;6.896;2023-04-04T07:50:14;102279.44;;;2.71;100.00
72959;BME280;60008;50.826;6.896;2023-04-04T07:52:59;102283.22;;;3.01;100.00
72959;BME280;60008;50.826;6.896;2023-04-04T07:55:45;102286.88;;;2.61;100.00
72959;BME280;60008;50.826;6.896;2023-04-04T07:58:31;102279.84;;;3.16;100.00
72959;BME280;60008;50.826;6.896;2023-04-04T08:01:15;102281.53;;;3.34;100.00
72959;BME280;60008;50.826;6.896;2023-04-04T08:04:01;102273.94;;;2.94;98.90
72959;BME280;60008;50.826;6.896;2023-04-04T08:06:46;102276.94;;;2.86;96.26
72959;BME280;60008;50.826;6.896;2023-04-04T08:09:31;102270.75;;;3.40;99.71
72959;BME280;60008;50.826;6.896;2023-04-04T08:12:19;102258.28;;;3.28;95.26
72959;BME280;60008;50.826;6.896;2023-04-04T08:15:04;102259.28;;;3.26;94.03
72959;BME280;60008;50.826;6.896;2023-04-04T08:17:49;102253.88;;;3.63;94.30
72959;BME280;60008;50.826;6.896;2023-04-04T08:20:34;102248.22;;;3.88;97.51
72959;BME280;60008;50.826;6.896;2023-04-04T08:23:19;102255.94;;;3.74;97.38
72959;BME280;60008;50.826;6.896;2023-04-04T08:26:04;102250.31;;;3.97;96.86
72959;BME280;60008;50.826;6.896;2023-04-04T08:28:49;102255.34;;;4.01;88.72
72959;BME280;60008;50.826;6.896;2023-04-04T08:31:35;102252.72;;;4.01;84.85
72959;BME280;60008;50.826;6.896;2023-04-04T08:34:20;102248.47;;;4.32;81.21
72959;BME280;60008;50.826;6.896;2023-04-04T08:37:07;102242.09;;;4.20;74.25
72959;BME280;60008;50.826;6.896;2023-04-04T08:39:52;102229.09;;;4.95;75.08
72959;BME280;60008;50.826;6.896;2023-04-04T08:42:39;102232.41;;;5.28;62.92
72959;BME280;60008;50.826;6.896;2023-04-04T08:45:26;102234.72;;;5.63;57.92
72959;BME280;60008;50.826;6.896;2023-04-04T08:48:14;102240.63;;;6.51;58.10
72959;BME280;60008;50.826;6.896;2023-04-04T08:51:00;102227.41;;;10.28;50.64
72959;BME280;60008;50.826;6.896;2023-04-04T08:53:47;102232.94;;;7.78;53.12
72959;BME280;60008;50.826;6.896;2023-04-04T08:56:33;102225.09;;;9.22;52.86
72959;BME280;60008;50.826;6.896;2023-04-04T08:59:20;102232.38;;;7.36;53.62
72959;BME280;60008;50.826;6.896;2023-04-04T09:04:52;102230.84;;;9.51;51.76
72959;BME280;60008;50.826;6.896;2023-04-04T09:07:50;102229.34;;;7.79;48.28
72959;BME280;60008;50.826;6.896;2023-04-04T09:10:37;102227.69;;;9.11;51.31
72959;BME280;60008;50.826;6.896;2023-04-04T09:13:22;102227.66;;;8.04;51.26
72959;BME280;60008;50.826;6.896;2023-04-04T09:16:07;102221.59;;;8.87;48.43
72959;BME280;60008;50.826;6.896;2023-04-04T09:18:52;102224.03;;;8.66;48.87
72959;BME280;60008;50.826;6.896;2023-04-04T09:21:37;102223.44;;;10.34;47.77
72959;BME280;60008;50.826;6.896;2023-04-04T09:24:23;102223.94;;;11.75;43.89
72959;BME280;60008;50.826;6.896;2023-04-04T09:27:09;102223.28;;;7.27;48.01
72959;BME280;60008;50.826;6.896;2023-04-04T09:29:58;102238.72;;;8.09;48.50
72959;BME280;60008;50.826;6.896;2023-04-04T09:32:49;102230.75;;;8.70;45.00
72959;BME280;60008;50.826;6.896;2023-04-04T09:35:39;102231.56;;;9.53;45.12
72959;BME280;60008;50.826;6.896;2023-04-04T09:38:28;102213.41;;;13.88;40.40
72959;BME280;60008;50.826;6.896;2023-04-04T09:41:14;102226.63;;;9.14;44.30
72959;BME280;60008;50.826;6.896;2023-04-04T09:44:00;102229.78;;;9.19;46.67
72959;BME280;60008;50.826;6.896;2023-04-04T09:46:46;102232.63;;;9.05;45.58
72959;BME280;60008;50.826;6.896;2023-04-04T09:49:35;102207.47;;;12.71;43.51
72959;BME280;60008;50.826;6.896;2023-04-04T09:52:20;102214.03;;;9.17;46.37
72959;BME280;60008;50.826;6.896;2023-04-04T09:55:05;102223.97;;;7.81;48.28
72959;BME280;60008;50.826;6.896;2023-04-04T09:57:50;102217.66;;;8.69;47.56
72959;BME280;60008;50.826;6.896;2023-04-04T10:00:39;102216.53;;;8.60;46.36
72959;BME280;60008;50.826;6.896;2023-04-04T10:03:27;102214.72;;;9.65;44.58
72959;BME280;60008;50.826;6.896;2023-04-04T10:06:12;102209.94;;;7.55;46.73
72959;BME280;60008;50.826;6.896;2023-04-04T10:08:57;102211.13;;;8.62;46.34
72959;BME280;60008;50.826;6.896;2023-04-04T10:11:43;102212.16;;;8.95;46.43
72959;BME280;60008;50.826;6.896;2023-04-04T10:14:34;102200.31;;;9.12;44.52
72959;BME280;60008;50.826;6.896;2023-04-04T10:17:20;102196.00;;;8.87;46.59
72959;BME280;60008;50.826;6.896;2023-04-04T10:20:07;102199.69;;;9.66;43.63
72959;BME280;60008;50.826;6.896;2023-04-04T10:22:52;102192.34;;;9.01;45.83
72959;BME280;60008;50.826;6.896;2023-04-04T10:25:38;102190.88;;;12.29;40.38
72959;BME280;60008;50.826;6.896;2023-04-04T10:28:24;102184.81;;;13.24;40.79
72959;BME280;60008;50.826;6.896;2023-04-04T10:34:16;102168.44;;;15.35;37.59
72959;BME280;60008;50.826;6.896;2023-04-04T10:37:08;102181.66;;;12.33;36.68
72959;BME280;60008;50.826;6.896;2023-04-04T10:40:09;102174.63;;;9.25;43.19
72959;BME280;60008;50.826;6.896;2023-04-04T10:42:55;102174.56;;;10.69;42.84
72959;BME280;60008;50.826;6.896;2023-04-04T10:45:41;102176.06;;;9.40;42.06
72959;BME280;60008;50.826;6.896;2023-04-04T10:48:27;102163.50;;;13.70;39.52
72959;BME280;60008;50.826;6.896;2023-04-04T10:51:13;102156.47;;;12.37;36.53
72959;BME280;60008;50.826;6.896;2023-04-04T10:53:59;102163.97;;;9.82;42.14
72959;BME280;60008;50.826;6.896;2023-04-04T10:56:44;102161.09;;;8.71;42.73
72959;BME280;60008;50.826;6.896;2023-04-04T10:59:29;102158.19;;;9.55;42.97
72959;BME280;60008;50.826;6.896;2023-04-04T11:02:15;102162.09;;;10.38;41.71
72959;BME280;60008;50.826;6.896;2023-04-04T11:05:24;102162.50;;;10.00;42.31
72959;BME280;60008;50.826;6.896;2023-04-04T11:08:10;102147.81;;;11.65;43.34
72959;BME280;60008;50.826;6.896;2023-04-04T11:10:58;102140.03;;;10.81;42.31
72959;BME280;60008;50.826;6.896;2023-04-04T11:13:58;102141.41;;;13.60;39.85
72959;BME280;60008;50.826;6.896;2023-04-04T11:16:45;102130.16;;;13.66;35.95
72959;BME280;60008;50.826;6.896;2023-04-04T11:19:31;102122.34;;;16.09;35.69
72959;BME280;60008;50.826;6.896;2023-04-04T11:22:21;102129.06;;;13.59;33.90
72959;BME280;60008;50.826;6.896;2023-04-04T11:25:25;102124.78;;;11.65;36.47
72959;BME280;60008;50.826;6.896;2023-04-04T11:28:15;102114.13;;;9.65;40.42
72959;BME280;60008;50.826;6.896;2023-04-04T11:34:08;102107.84;;;11.36;38.04
72959;BME280;60008;50.826;6.896;2023-04-04T11:36:53;102109.75;;;11.04;38.57
72959;BME280;60008;50.826;6.896;2023-04-04T11:39:46;102104.41;;;12.34;37.18
72959;BME280;60008;50.826;6.896;2023-04-04T11:42:35;102100.72;;;15.01;35.66
72959;BME280;60008;50.826;6.896;2023-04-04T11:45:24;102097.63;;;15.14;34.23
72959;BME280;60008;50.826;6.896;2023-04-04T11:48:09;102099.06;;;14.12;34.33
72959;BME280;60008;50.826;6.896;2023-04-04T11:50:54;102096.56;;;10.72;37.61
72959;BME280;60008;50.826;6.896;2023-04-04T11:53:41;102093.28;;;10.05;39.46
72959;BME280;60008;50.826;6.896;2023-04-04T11:56:26;102101.84;;;8.63;42.66
72959;BME280;60008;50.826;6.896;2023-04-04T11:59:11;102101.41;;;9.70;43.05
72959;BME280;60008;50.826;6.896;2023-04-04T12:01:58;102097.66;;;8.24;42.09
72959;BME280;60008;50.826;6.896;2023-04-04T12:04:45;102092.56;;;9.03;43.22
72959;BME280;60008;50.826;6.896;2023-04-04T12:07:33;102087.53;;;10.00;40.45
72959;BME280;60008;50.826;6.896;2023-04-04T12:10:18;102082.66;;;8.72;40.42
72959;BME280;60008;50.826;6.896;2023-04-04T12:13:08;102077.66;;;8.56;41.47
72959;BME280;60008;50.826;6.896;2023-04-04T12:15:54;102074.03;;;8.92;43.39
72959;BME280;60008;50.826;6.896;2023-04-04T12:18:40;102061.25;;;8.40;43.16
72959;BME280;60008;50.826;6.896;2023-04-04T12:21:25;102064.78;;;8.52;41.50
72959;BME280;60008;50.826;6.896;2023-04-04T12:24:10;102053.84;;;8.80;41.09
72959;BME280;60008;50.826;6.896;2023-04-04T12:26:57;102058.13;;;8.70;41.25
72959;BME280;60008;50.826;6.896;2023-04-04T12:29:42;102062.81;;;8.66;40.14
72959;BME280;60008;50.826;6.896;2023-04-04T12:32:29;102049.56;;;8.55;40.79
72959;BME280;60008;50.826;6.896;2023-04-04T12:35:15;102062.81;;;9.56;42.61
72959;BME280;60008;50.826;6.896;2023-04-04T12:38:04;102048.09;;;9.75;40.73
72959;BME280;60008;50.826;6.896;2023-04-04T12:40:54;102050.16;;;9.49;39.75
72959;BME280;60008;50.826;6.896;2023-04-04T12:43:40;102041.63;;;9.56;39.77
72959;BME280;60008;50.826;6.896;2023-04-04T12:46:25;102034.28;;;9.05;40.58
72959;BME280;60008;50.826;6.896;2023-04-04T12:49:12;102040.91;;;8.53;40.23
72959;BME280;60008;50.826;6.896;2023-04-04T12:51:58;102035.72;;;9.09;41.45
72959;BME280;60008;50.826;6.896;2023-04-04T12:54:49;102032.31;;;8.73;43.73
72959;BME280;60008;50.826;6.896;2023-04-04T12:57:59;102031.00;;;9.68;42.32
72959;BME280;60008;50.826;6.896;2023-04-04T13:00:44;102034.41;;;9.47;39.86
72959;BME280;60008;50.826;6.896;2023-04-04T13:03:29;102030.84;;;8.58;40.30
72959;BME280;60008;50.826;6.896;2023-04-04T13:06:15;102009.88;;;9.01;42.11
72959;BME280;60008;50.826;6.896;2023-04-04T13:09:00;102013.84;;;9.07;39.74
72959;BME280;60008;50.826;6.896;2023-04-04T13:11:55;102012.28;;;8.93;40.66
72959;BME280;60008;50.826;6.896;2023-04-04T13:15:03;101993.59;;;8.50;40.88
72959;BME280;60008;50.826;6.896;2023-04-04T13:17:50;101995.91;;;8.66;39.93
72959;BME280;60008;50.826;6.896;2023-04-04T13:20:36;101998.47;;;9.01;40.78
72959;BME280;60008;50.826;6.896;2023-04-04T13:23:21;101987.25;;;9.41;41.19
72959;BME280;60008;50.826;6.896;2023-04-04T13:26:08;101973.25;;;10.04;39.91
72959;BME280;60008;50.826;6.896;2023-04-04T13:28:53;101965.78;;;9.78;39.21
72959;BME280;60008;50.826;6.896;2023-04-04T13:31:38;101974.88;;;9.42;40.17
72959;BME280;60008;50.826;6.896;2023-04-04T13:34:23;101963.28;;;9.54;38.39
72959;BME280;60008;50.826;6.896;2023-04-04T13:37:10;101957.81;;;10.09;40.83
72959;BME280;60008;50.826;6.896;2023-04-04T13:39:55;101953.41;;;10.31;39.99
72959;BME280;60008;50.826;6.896;2023-04-04T13:42:40;101967.41;;;9.36;38.96
72959;BME280;60008;50.826;6.896;2023-04-04T13:45:25;101965.00;;;9.33;43.70
72959;BME280;60008;50.826;6.896;2023-04-04T13:48:10;101959.63;;;9.01;39.63
72959;BME280;60008;50.826;6.896;2023-04-04T13:50:55;101959.25;;;9.28;39.23
72959;BME280;60008;50.826;6.896;2023-04-04T13:53:41;101954.09;;;9.26;39.45
72959;BME280;60008;50.826;6.896;2023-04-04T13:56:28;101945.88;;;9.40;40.94
72959;BME280;60008;50.826;6.896;2023-04-04T13:59:13;101943.97;;;9.42;38.23
72959;BME280;60008;50.826;6.896;2023-04-04T14:01:58;101934.97;;;9.97;39.62
72959;BME280;60008;50.826;6.896;2023-04-04T14:04:43;101933.13;;;9.88;38.51
72959;BME280;60008;50.826;6.896;2023-04-04T14:07:28;101930.88;;;9.19;38.47
72959;BME280;60008;50.826;6.896;2023-04-04T14:10:13;101931.47;;;9.33;38.93
72959;BME280;60008;50.826;6.896;2023-04-04T14:12:58;101915.44;;;9.46;37.86
72959;BME280;60008;50.826;6.896;2023-04-04T14:15:44;101912.03;;;9.12;37.93
72959;BME280;60008;50.826;6.896;2023-04-04T14:18:29;101919.81;;;9.25;38.60
72959;BME280;60008;50.826;6.896;2023-04-04T14:21:15;101914.31;;;9.59;36.23
72959;BME280;60008;50.826;6.896;2023-04-04T14:24:00;101914.28;;;9.71;37.28
72959;BME280;60008;50.826;6.896;2023-04-04T14:26:45;101901.59;;;10.06;38.55
72959;BME280;60008;50.826;6.896;2023-04-04T14:29:30;101898.34;;;10.13;39.46
72959;BME280;60008;50.826;6.896;2023-04-04T14:32:15;101899.47;;;10.00;37.40
72959;BME280;60008;50.826;6.896;2023-04-04T14:35:00;101891.94;;;9.64;37.49
72959;BME280;60008;50.826;6.896;2023-04-04T14:37:45;101884.59;;;10.08;37.86
72959;BME280;60008;50.826;6.896;2023-04-04T14:40:30;101885.22;;;10.33;38.37
72959;BME280;60008;50.826;6.896;2023-04-04T14:43:15;101887.19;;;10.61;37.59
72959;BME280;60008;50.826;6.896;2023-04-04T14:46:00;101870.84;;;10.56;37.99
72959;BME280;60008;50.826;6.896;2023-04-04T14:48:45;101870.75;;;10.16;37.19
72959;BME280;60008;50.826;6.896;2023-04-04T14:51:31;101877.91;;;9.52;37.49